Geneva Cointrin International Airport

Airport
ICAO code: 
LSGG
IATA Code: 
GVA
Summary
ICAO Region: 
EUR
Territory: 
Location: 
Meyrin, Geneve
Serving: 
Geneva
Elevation: 
1411 ft
Coordinates: 
Aerial View: 
46° 14' 17.03" N, 6° 6' 32.22" E
Metar
Observation
LSGG 262220Z 29002KT 3000 BR OVC002 M00/M01 Q1031 BECMG 2000
Station
Geneve-Cointrin
Date/Time
2022-01-26 22:20:00
Wind direction
290°
Wind speed
02 kts
Lowest cloud amount
overcast
Temperature
-0°C
Dew point
-1°C
Humidity
92%
QNH
1031 hPa
Weather condition
n/a

Runways

Designator Length Width Surface Rops
05L/23R 823 30 CAUTION: A No/No
5/23 3900 50 CON Yes/Yes

SKYbrary Partners:

Safety knowledge contributed by: